createdAt,value
2022-08-11T00:00:00.895Z,22.70
2022-08-11T00:02:35.524Z,22.65
2022-08-11T00:05:09.081Z,22.59
2022-08-11T00:07:45.338Z,22.63
2022-08-11T00:10:16.439Z,22.70
2022-08-11T00:12:54.131Z,22.76
2022-08-11T00:15:22.780Z,22.80
2022-08-11T00:17:58.442Z,22.84
2022-08-11T00:20:33.159Z,22.88
2022-08-11T00:23:07.616Z,22.95
2022-08-11T00:25:41.581Z,22.97
2022-08-11T00:28:27.030Z,23.01
2022-08-11T00:30:57.070Z,23.02
2022-08-11T00:33:41.070Z,23.01
2022-08-11T00:36:18.950Z,22.93
2022-08-11T00:38:54.683Z,22.93
2022-08-11T00:41:35.364Z,22.85
2022-08-11T00:44:37.629Z,22.80
2022-08-11T00:47:22.439Z,22.68
2022-08-11T00:50:05.790Z,22.75
2022-08-11T00:53:13.549Z,22.73
2022-08-11T00:56:34.981Z,22.70
2022-08-11T00:59:58.045Z,22.72
2022-08-11T01:03:09.912Z,22.74
2022-08-11T01:06:13.054Z,22.79
2022-08-11T01:09:25.082Z,22.72
2022-08-11T01:12:28.973Z,22.66
2022-08-11T01:15:43.584Z,22.63
2022-08-11T01:19:16.089Z,22.58
2022-08-11T01:22:24.481Z,22.48
2022-08-11T01:25:57.301Z,22.41
2022-08-11T01:29:17.306Z,22.32
2022-08-11T01:32:27.684Z,22.18
2022-08-11T01:36:07.563Z,22.27
2022-08-11T01:39:11.876Z,22.37
2022-08-11T01:42:45.538Z,22.42
2022-08-11T01:45:35.328Z,22.47
2022-08-11T01:48:13.549Z,22.52
2022-08-11T01:51:16.922Z,22.53
2022-08-11T01:53:57.137Z,22.55
2022-08-11T01:56:50.809Z,22.52
2022-08-11T01:59:25.798Z,22.51
2022-08-11T02:02:45.919Z,22.50
2022-08-11T02:05:42.332Z,22.49
2022-08-11T02:08:33.242Z,22.47
2022-08-11T02:11:35.570Z,22.47
2022-08-11T02:14:25.609Z,22.46
2022-08-11T02:17:14.992Z,22.44
2022-08-11T02:20:15.095Z,22.42
2022-08-11T02:23:13.238Z,22.39
2022-08-11T02:26:10.121Z,22.30
2022-08-11T02:28:54.211Z,22.26
2022-08-11T02:32:23.970Z,22.17
2022-08-11T02:34:59.899Z,22.09
2022-08-11T02:37:45.276Z,22.02
2022-08-11T02:40:25.970Z,21.98
2022-08-11T02:43:12.356Z,22.05
2022-08-11T02:45:59.459Z,22.06
2022-08-11T02:48:59.094Z,22.03
2022-08-11T02:51:38.555Z,21.94
2022-08-11T02:54:15.987Z,21.89
2022-08-11T02:56:53.162Z,21.91
2022-08-11T02:59:51.523Z,21.94
2022-08-11T03:02:41.153Z,21.92
2022-08-11T03:05:25.060Z,21.90
2022-08-11T03:08:09.500Z,21.89
2022-08-11T03:11:10.329Z,21.85
2022-08-11T03:14:04.783Z,21.80
2022-08-11T03:16:48.315Z,21.70
2022-08-11T03:19:27.116Z,21.64
2022-08-11T03:22:09.244Z,21.55
2022-08-11T03:24:56.996Z,21.43
2022-08-11T03:27:47.833Z,21.31
2022-08-11T03:30:20.591Z,21.20
2022-08-11T03:33:26.546Z,21.14
2022-08-11T03:36:10.041Z,21.13
2022-08-11T03:39:00.882Z,20.98
2022-08-11T03:42:04.463Z,20.86
2022-08-11T03:44:51.546Z,20.81
2022-08-11T03:47:53.491Z,20.78
2022-08-11T03:50:53.087Z,20.68
2022-08-11T03:53:45.475Z,20.63
2022-08-11T03:57:18.162Z,20.60
2022-08-11T04:00:18.295Z,20.57
2022-08-11T04:03:38.478Z,20.59
2022-08-11T04:07:00.057Z,20.56
2022-08-11T04:10:25.014Z,20.53
2022-08-11T04:13:41.054Z,20.51
2022-08-11T04:16:31.762Z,20.50
2022-08-11T04:19:54.470Z,20.38
2022-08-11T04:22:55.249Z,20.35
2022-08-11T04:26:22.493Z,20.20
2022-08-11T04:29:09.693Z,20.17
2022-08-11T04:31:52.733Z,20.08
2022-08-11T04:34:59.984Z,19.93
2022-08-11T04:37:59.355Z,19.85
2022-08-11T04:40:55.920Z,19.82
2022-08-11T04:44:27.365Z,19.78
2022-08-11T04:48:03.891Z,19.78
2022-08-11T04:51:17.151Z,19.77
2022-08-11T04:54:19.372Z,19.79
2022-08-11T04:57:07.034Z,19.78
2022-08-11T05:00:11.870Z,19.75
2022-08-11T05:03:36.414Z,19.68
2022-08-11T05:07:09.326Z,19.67
2022-08-11T05:10:04.049Z,19.72
2022-08-11T05:12:42.222Z,19.79
2022-08-11T05:15:51.415Z,19.79
2022-08-11T05:18:42.764Z,19.82
2022-08-11T05:21:44.325Z,19.86
2022-08-11T05:24:48.601Z,19.91
2022-08-11T05:27:38.110Z,19.97
2022-08-11T05:30:26.743Z,20.07
2022-08-11T05:33:24.201Z,20.10
2022-08-11T05:36:03.456Z,20.21
2022-08-11T05:38:54.914Z,20.32
2022-08-11T05:41:44.292Z,20.34
2022-08-11T05:44:38.218Z,20.44
2022-08-11T05:47:24.989Z,20.52
2022-08-11T05:50:13.511Z,20.55
2022-08-11T05:53:09.124Z,20.72
2022-08-11T05:56:03.001Z,20.88
2022-08-11T05:58:41.303Z,21.03
2022-08-11T06:01:14.206Z,21.07
2022-08-11T06:04:08.939Z,21.20
2022-08-11T06:06:45.210Z,21.30
2022-08-11T06:09:14.704Z,21.38
2022-08-11T06:11:45.125Z,21.48
2022-08-11T06:14:15.907Z,21.49
2022-08-11T06:16:50.018Z,21.65
2022-08-11T06:19:23.055Z,21.75
2022-08-11T06:21:53.146Z,21.83
2022-08-11T06:24:21.442Z,21.85
2022-08-11T06:29:54.446Z,21.97
2022-08-11T06:32:30.389Z,22.01
2022-08-11T06:35:19.805Z,22.05
2022-08-11T06:38:03.558Z,22.18
2022-08-11T06:40:39.555Z,22.16
2022-08-11T06:43:19.536Z,22.27
2022-08-11T06:46:03.077Z,22.27
2022-08-11T06:48:35.003Z,22.27
2022-08-11T06:51:12.378Z,22.41
2022-08-11T06:54:03.708Z,22.47
2022-08-11T06:57:28.235Z,22.44
2022-08-11T07:00:02.525Z,22.62
2022-08-11T07:02:35.187Z,22.72
2022-08-11T07:05:13.505Z,22.69
2022-08-11T07:08:44.655Z,22.80
2022-08-11T07:12:02.625Z,22.85
2022-08-11T07:14:50.923Z,22.96
2022-08-11T07:17:23.471Z,23.10
2022-08-11T07:20:14.210Z,23.14
2022-08-11T07:23:14.899Z,23.28
2022-08-11T07:26:03.588Z,23.31
2022-08-11T07:28:49.184Z,23.37
2022-08-11T07:31:23.342Z,23.31
2022-08-11T07:34:06.462Z,23.34
2022-08-11T07:36:41.912Z,23.55
2022-08-11T07:39:18.863Z,23.64
2022-08-11T07:41:48.263Z,23.61
2022-08-11T07:44:17.420Z,23.74
2022-08-11T07:47:09.310Z,23.85
2022-08-11T07:49:58.458Z,23.93
2022-08-11T07:52:32.630Z,23.87
2022-08-11T07:55:08.515Z,24.04
2022-08-11T07:58:14.509Z,24.21
2022-08-11T08:01:10.669Z,24.26
2022-08-11T08:04:07.471Z,24.35
2022-08-11T08:06:55.333Z,24.52
2022-08-11T08:09:42.741Z,24.63
2022-08-11T08:12:30.905Z,24.48
2022-08-11T08:15:17.476Z,24.84
2022-08-11T08:18:20.449Z,24.82
2022-08-11T08:20:46.327Z,24.99
2022-08-11T08:23:14.782Z,24.93
2022-08-11T08:25:45.444Z,25.15
2022-08-11T08:28:21.580Z,25.15
2022-08-11T08:30:51.709Z,25.18
2022-08-11T08:33:23.252Z,25.28
2022-08-11T08:36:11.417Z,25.32
2022-08-11T08:38:42.875Z,25.34
2022-08-11T08:41:13.215Z,25.54
2022-08-11T08:43:50.024Z,25.60
2022-08-11T08:46:28.872Z,25.74
2022-08-11T08:49:01.329Z,25.76
2022-08-11T08:52:01.346Z,26.00
2022-08-11T08:54:31.523Z,26.10
2022-08-11T08:57:05.312Z,26.23
2022-08-11T08:59:48.733Z,26.36
2022-08-11T09:02:33.471Z,26.40
2022-08-11T09:05:04.754Z,26.58
2022-08-11T09:07:39.585Z,26.67
2022-08-11T09:10:10.729Z,26.81
2022-08-11T09:12:43.066Z,26.70
2022-08-11T09:15:19.288Z,26.95
2022-08-11T09:17:50.154Z,26.95
2022-08-11T09:20:23.830Z,26.95
2022-08-11T09:26:21.015Z,26.91
2022-08-11T09:28:50.202Z,26.97
2022-08-11T09:31:22.865Z,27.13
2022-08-11T09:33:55.906Z,27.23
2022-08-11T09:36:41.973Z,27.23
2022-08-11T09:39:31.413Z,27.35
2022-08-11T09:42:03.290Z,27.59
2022-08-11T09:44:49.580Z,27.67
2022-08-11T09:47:24.206Z,27.70
2022-08-11T09:49:56.202Z,27.78
2022-08-11T09:52:25.685Z,27.81
2022-08-11T09:54:55.647Z,27.87
2022-08-11T09:57:42.186Z,27.97
2022-08-11T10:00:15.276Z,28.02
2022-08-11T10:02:49.438Z,28.12
2022-08-11T10:05:38.194Z,28.13
2022-08-11T10:08:08.325Z,28.32
2022-08-11T10:10:39.572Z,28.55
2022-08-11T10:14:30.277Z,28.46
2022-08-11T10:16:15.184Z,28.41
2022-08-11T10:18:52.808Z,28.46
2022-08-11T10:21:30.193Z,28.50
2022-08-11T10:24:19.726Z,28.56
2022-08-11T10:27:00.374Z,28.61
2022-08-11T10:29:51.972Z,28.63
2022-08-11T10:32:57.997Z,28.53
2022-08-11T10:35:30.422Z,28.56
2022-08-11T10:38:06.863Z,28.61
2022-08-11T10:40:40.625Z,28.68
2022-08-11T10:43:14.080Z,28.92
2022-08-11T10:46:18.598Z,28.69
2022-08-11T10:48:58.046Z,28.45
2022-08-11T10:51:50.747Z,28.54
2022-08-11T10:54:41.075Z,28.60
2022-08-11T10:57:37.736Z,28.63
2022-08-11T11:00:08.551Z,28.57
2022-08-11T11:02:36.906Z,28.55
2022-08-11T11:05:14.158Z,28.57
2022-08-11T11:07:55.946Z,28.79
2022-08-11T11:10:24.306Z,28.70
2022-08-11T11:13:15.366Z,28.80
2022-08-11T11:16:06.359Z,28.79
2022-08-11T11:18:38.279Z,28.87
2022-08-11T11:21:09.405Z,28.99
2022-08-11T11:23:47.530Z,29.06
2022-08-11T11:26:38.369Z,29.12
2022-08-11T11:29:31.355Z,29.36
2022-08-11T11:32:18.722Z,29.35
2022-08-11T11:35:23.811Z,29.47
2022-08-11T11:38:04.595Z,29.50
2022-08-11T11:40:35.430Z,29.46
2022-08-11T11:43:05.207Z,29.51
2022-08-11T11:45:33.865Z,29.70
2022-08-11T11:48:03.071Z,29.64
2022-08-11T11:50:35.081Z,29.47
2022-08-11T11:53:06.998Z,29.61
2022-08-11T11:55:37.263Z,29.71
2022-08-11T11:58:23.982Z,29.83
2022-08-11T12:01:12.392Z,29.67
2022-08-11T12:03:41.402Z,29.63
2022-08-11T12:06:14.174Z,29.55
2022-08-11T12:08:44.003Z,29.54
2022-08-11T12:11:28.529Z,29.57
2022-08-11T12:14:00.294Z,29.55
2022-08-11T12:16:32.773Z,29.60
2022-08-11T12:19:07.467Z,29.68
2022-08-11T12:21:37.708Z,29.81
2022-08-11T12:24:29.278Z,29.52
2022-08-11T12:27:18.283Z,29.40
2022-08-11T12:29:54.553Z,29.44
2022-08-11T12:32:26.748Z,29.56
2022-08-11T12:34:57.838Z,29.63
2022-08-11T12:37:31.192Z,29.76
2022-08-11T12:40:43.757Z,29.81
2022-08-11T12:43:37.195Z,29.87
2022-08-11T12:46:11.114Z,29.81
2022-08-11T12:49:04.329Z,29.70
2022-08-11T12:52:12.483Z,29.60
2022-08-11T12:54:59.674Z,29.50
2022-08-11T12:57:51.199Z,29.52
2022-08-11T13:00:39.234Z,29.52
2022-08-11T13:03:28.843Z,29.55
2022-08-11T13:05:59.275Z,29.71
2022-08-11T13:08:30.226Z,29.79
2022-08-11T13:11:19.348Z,29.66
2022-08-11T13:13:53.650Z,29.54
2022-08-11T13:16:30.681Z,29.59
2022-08-11T13:19:01.766Z,29.57
2022-08-11T13:21:31.063Z,29.68
2022-08-11T13:24:03.144Z,29.69
2022-08-11T13:26:47.191Z,29.76
2022-08-11T13:29:20.487Z,29.81
2022-08-11T13:31:53.424Z,29.87
2022-08-11T13:34:24.337Z,29.83
2022-08-11T13:36:55.198Z,29.86
2022-08-11T13:39:25.056Z,29.93
2022-08-11T13:41:56.735Z,29.87
2022-08-11T13:44:29.769Z,29.88
2022-08-11T13:47:04.297Z,29.89
2022-08-11T13:49:34.698Z,29.80
2022-08-11T13:52:03.921Z,29.73
2022-08-11T13:54:36.108Z,29.71
2022-08-11T13:57:13.420Z,29.69
2022-08-11T13:59:52.245Z,29.60
2022-08-11T14:02:30.274Z,29.66
2022-08-11T14:05:04.129Z,29.71
2022-08-11T14:07:39.934Z,29.76
2022-08-11T14:10:11.830Z,29.80
2022-08-11T14:13:01.639Z,29.81
2022-08-11T14:15:35.161Z,29.78
2022-08-11T14:18:10.246Z,29.76
2022-08-11T14:21:00.640Z,29.65
2022-08-11T14:23:33.782Z,29.68
2022-08-11T14:26:20.616Z,29.80
2022-08-11T14:28:49.511Z,29.70
2022-08-11T14:31:18.200Z,29.57
2022-08-11T14:33:59.798Z,29.65
2022-08-11T14:36:33.946Z,29.55
2022-08-11T14:39:08.245Z,29.53
2022-08-11T14:42:07.673Z,29.62
2022-08-11T14:45:02.101Z,29.76
2022-08-11T14:47:34.736Z,29.77
2022-08-11T14:50:10.917Z,29.72
2022-08-11T14:52:50.465Z,29.78
2022-08-11T14:55:37.512Z,29.69
2022-08-11T14:58:06.542Z,29.81
2022-08-11T15:00:42.517Z,29.85
2022-08-11T15:03:15.456Z,29.75
2022-08-11T15:05:56.829Z,29.69
2022-08-11T15:08:51.157Z,29.73
2022-08-11T15:11:40.787Z,29.73
2022-08-11T15:14:11.749Z,29.73
2022-08-11T15:17:03.381Z,29.71
2022-08-11T15:19:41.082Z,29.75
2022-08-11T15:22:29.316Z,29.82
2022-08-11T15:24:59.924Z,29.72
2022-08-11T15:27:48.912Z,29.67
2022-08-11T15:30:35.643Z,29.69
2022-08-11T15:33:25.992Z,29.76
2022-08-11T15:36:14.596Z,29.62
2022-08-11T15:38:55.489Z,29.63
2022-08-11T15:41:58.769Z,29.68
2022-08-11T15:45:05.708Z,29.63
2022-08-11T15:47:47.156Z,29.56
2022-08-11T15:50:21.849Z,29.52
2022-08-11T15:52:57.697Z,29.55
2022-08-11T15:55:29.880Z,29.47
2022-08-11T15:58:17.727Z,29.32
2022-08-11T16:01:08.886Z,29.41
2022-08-11T16:04:07.891Z,29.47
2022-08-11T16:06:47.795Z,29.44
2022-08-11T16:09:24.627Z,29.38
2022-08-11T16:11:58.362Z,29.41
2022-08-11T16:14:46.186Z,29.47
2022-08-11T16:17:17.450Z,29.41
2022-08-11T16:19:47.828Z,29.45
2022-08-11T16:22:28.421Z,29.52
2022-08-11T16:27:04.891Z,29.40
2022-08-11T16:27:51.587Z,29.35
2022-08-11T16:30:19.822Z,29.30
2022-08-11T16:32:53.055Z,29.33
2022-08-11T16:35:42.939Z,29.39
2022-08-11T16:38:31.683Z,29.30
2022-08-11T16:41:06.187Z,29.28
2022-08-11T16:44:00.597Z,29.31
2022-08-11T16:46:47.672Z,29.27
2022-08-11T16:49:21.984Z,29.27
2022-08-11T16:51:50.085Z,29.29
2022-08-11T16:54:18.416Z,29.33
2022-08-11T16:56:50.118Z,29.19
2022-08-11T16:59:24.128Z,29.23
2022-08-11T17:01:55.806Z,29.29
2022-08-11T17:04:55.227Z,29.09
2022-08-11T17:07:54.949Z,29.05
2022-08-11T17:10:51.615Z,29.19
2022-08-11T17:13:29.199Z,29.17
2022-08-11T17:16:11.737Z,28.91
2022-08-11T17:18:55.323Z,29.10
2022-08-11T17:21:29.819Z,29.02
2022-08-11T17:24:09.045Z,28.99
2022-08-11T17:27:04.999Z,29.02
2022-08-11T17:29:53.713Z,28.91
2022-08-11T17:32:55.996Z,28.81
2022-08-11T17:35:33.660Z,28.99
2022-08-11T17:38:07.746Z,29.03
2022-08-11T17:40:39.656Z,29.00
2022-08-11T17:43:27.337Z,29.02
2022-08-11T17:46:15.026Z,28.93
2022-08-11T17:48:48.229Z,28.87
2022-08-11T17:51:34.658Z,28.82
2022-08-11T17:54:24.943Z,28.81
2022-08-11T17:57:21.000Z,28.67
2022-08-11T17:59:56.849Z,28.58
2022-08-11T18:02:48.233Z,28.67
2022-08-11T18:05:20.717Z,28.56
2022-08-11T18:08:12.501Z,28.56
2022-08-11T18:11:00.760Z,28.57
2022-08-11T18:13:50.145Z,28.58
2022-08-11T18:16:36.889Z,28.52
2022-08-11T18:19:22.996Z,28.44
2022-08-11T18:22:15.549Z,28.33
2022-08-11T18:25:08.864Z,28.23
2022-08-11T18:27:57.106Z,28.17
2022-08-11T18:30:43.780Z,28.23
2022-08-11T18:36:41.671Z,28.13
2022-08-11T18:39:31.991Z,28.10
2022-08-11T18:42:29.664Z,28.05
2022-08-11T18:45:20.063Z,27.93
2022-08-11T18:48:11.530Z,27.83
2022-08-11T18:51:31.066Z,27.70
2022-08-11T18:54:10.454Z,27.62
2022-08-11T18:56:58.589Z,27.53
2022-08-11T18:59:47.107Z,27.43
2022-08-11T19:02:49.427Z,27.37
2022-08-11T19:06:32.205Z,27.29
2022-08-11T19:08:49.886Z,27.21
2022-08-11T19:11:42.636Z,27.12
2022-08-11T19:14:33.493Z,27.03
2022-08-11T19:17:43.442Z,26.97
2022-08-11T19:20:32.202Z,26.94
2022-08-11T19:23:20.786Z,26.83
2022-08-11T19:26:07.790Z,26.75
2022-08-11T19:28:55.720Z,26.67
2022-08-11T19:31:45.212Z,26.55
2022-08-11T19:34:33.169Z,26.45
2022-08-11T19:37:24.000Z,26.38
2022-08-11T19:40:12.763Z,26.28
2022-08-11T19:43:01.615Z,26.19
2022-08-11T19:45:52.784Z,26.12
2022-08-11T19:48:43.050Z,26.06
2022-08-11T19:51:29.700Z,25.91
2022-08-11T19:54:16.878Z,25.74
2022-08-11T19:57:04.481Z,25.72
2022-08-11T19:59:52.397Z,25.70
2022-08-11T20:02:38.461Z,25.60
2022-08-11T20:05:27.761Z,25.60
2022-08-11T20:08:16.839Z,25.54
2022-08-11T20:11:06.809Z,25.53
2022-08-11T20:13:53.971Z,25.54
2022-08-11T20:16:42.134Z,25.50
2022-08-11T20:19:55.031Z,25.45
2022-08-11T20:22:37.103Z,25.40
2022-08-11T20:25:25.293Z,25.35
2022-08-11T20:28:12.209Z,25.27
2022-08-11T20:30:59.609Z,25.19
2022-08-11T20:33:45.355Z,25.10
2022-08-11T20:36:33.684Z,25.00
2022-08-11T20:39:22.907Z,24.90
2022-08-11T20:42:10.053Z,24.84
2022-08-11T20:44:57.989Z,24.78
2022-08-11T20:47:59.735Z,24.73
2022-08-11T20:50:47.619Z,24.57
2022-08-11T20:53:39.163Z,24.59
2022-08-11T20:56:30.005Z,24.54
2022-08-11T21:02:25.751Z,24.30
2022-08-11T21:05:15.854Z,24.29
2022-08-11T21:08:09.783Z,24.27
2022-08-11T21:11:00.762Z,24.25
2022-08-11T21:13:53.886Z,24.25
2022-08-11T21:16:47.544Z,24.24
2022-08-11T21:20:00.605Z,24.17
2022-08-11T21:22:59.350Z,24.13
2022-08-11T21:25:59.241Z,24.07
2022-08-11T21:28:48.567Z,24.02
2022-08-11T21:31:36.890Z,24.00
2022-08-11T21:34:25.035Z,23.93
2022-08-11T21:37:11.924Z,23.87
2022-08-11T21:39:58.779Z,23.80
2022-08-11T21:42:46.365Z,23.77
2022-08-11T21:45:34.564Z,23.77
2022-08-11T21:48:21.096Z,23.69
2022-08-11T21:51:06.792Z,23.59
2022-08-11T21:53:53.040Z,23.49
2022-08-11T21:56:40.290Z,23.51
2022-08-11T21:59:26.540Z,23.50
2022-08-11T22:02:14.460Z,23.49
2022-08-11T22:05:01.472Z,23.43
2022-08-11T22:07:47.859Z,23.38
2022-08-11T22:10:40.928Z,23.32
2022-08-11T22:13:30.893Z,23.28
2022-08-11T22:16:17.458Z,23.24
2022-08-11T22:19:05.960Z,23.15
2022-08-11T22:22:01.540Z,23.12
2022-08-11T22:24:50.480Z,23.13
2022-08-11T22:27:36.634Z,23.08
2022-08-11T22:30:24.294Z,23.11
2022-08-11T22:33:10.778Z,23.05
2022-08-11T22:35:59.904Z,22.99
2022-08-11T22:38:46.515Z,23.00
2022-08-11T22:41:32.840Z,22.96
2022-08-11T22:44:18.424Z,22.97
2022-08-11T22:47:05.283Z,22.89
2022-08-11T22:49:57.429Z,22.81
2022-08-11T22:52:48.687Z,22.85
2022-08-11T22:55:35.876Z,22.85
2022-08-11T22:58:22.561Z,22.90
2022-08-11T23:01:08.685Z,22.79
2022-08-11T23:03:54.991Z,22.81
2022-08-11T23:06:41.024Z,22.83
2022-08-11T23:09:29.399Z,22.83
2022-08-11T23:12:16.452Z,22.88
2022-08-11T23:15:03.753Z,22.69
2022-08-11T23:17:50.962Z,22.71
2022-08-11T23:20:52.880Z,22.56
2022-08-11T23:23:41.806Z,22.48
2022-08-11T23:26:30.043Z,22.43
2022-08-11T23:29:17.202Z,22.40
2022-08-11T23:32:05.843Z,22.49
2022-08-11T23:35:03.643Z,22.54
2022-08-11T23:37:51.330Z,22.52
2022-08-11T23:40:37.331Z,22.57
2022-08-11T23:43:25.212Z,22.59
2022-08-11T23:46:10.790Z,22.62
2022-08-11T23:48:57.958Z,22.66
2022-08-11T23:51:45.804Z,22.61
2022-08-11T23:54:37.153Z,22.55
2022-08-11T23:57:24.201Z,22.49
